createdAt,value
2023-05-09T00:01:41.685Z,20.60
2023-05-09T00:04:08.170Z,18.93
2023-05-09T00:06:35.001Z,19.83
2023-05-09T00:09:01.955Z,23.27
2023-05-09T00:11:28.396Z,21.40
2023-05-09T00:13:54.877Z,21.10
2023-05-09T00:16:23.926Z,21.10
2023-05-09T00:18:51.116Z,20.43
2023-05-09T00:21:17.593Z,22.20
2023-05-09T00:23:44.127Z,18.97
2023-05-09T00:26:10.665Z,21.80
2023-05-09T00:28:37.462Z,19.10
2023-05-09T00:31:04.644Z,20.07
2023-05-09T00:33:31.155Z,24.70
2023-05-09T00:35:57.638Z,24.43
2023-05-09T00:38:25.199Z,20.93
2023-05-09T00:40:51.699Z,22.10
2023-05-09T00:43:18.175Z,22.40
2023-05-09T00:45:45.675Z,24.23
2023-05-09T00:48:12.446Z,22.00
2023-05-09T00:50:38.920Z,22.43
2023-05-09T00:53:05.677Z,22.77
2023-05-09T00:55:32.216Z,23.30
2023-05-09T00:57:58.664Z,22.80
2023-05-09T01:00:25.343Z,28.33
2023-05-09T01:02:54.974Z,28.00
2023-05-09T01:05:25.389Z,25.57
2023-05-09T01:08:09.938Z,28.90
2023-05-09T01:10:55.007Z,25.27
2023-05-09T01:13:41.347Z,24.83
2023-05-09T01:16:17.625Z,26.47
2023-05-09T01:18:51.853Z,27.77
2023-05-09T01:21:26.900Z,29.30
2023-05-09T01:24:14.627Z,25.13
2023-05-09T01:26:46.624Z,25.07
2023-05-09T01:29:21.967Z,25.67
2023-05-09T01:31:51.884Z,26.27
2023-05-09T01:34:19.366Z,27.30
2023-05-09T01:36:47.427Z,29.73
2023-05-09T01:39:14.122Z,28.23
2023-05-09T01:41:40.899Z,25.87
2023-05-09T01:44:11.603Z,25.00
2023-05-09T01:46:39.745Z,23.27
2023-05-09T01:49:08.882Z,26.50
2023-05-09T01:51:38.024Z,25.93
2023-05-09T01:54:06.427Z,27.80
2023-05-09T01:56:33.493Z,24.00
2023-05-09T01:59:02.227Z,26.37
2023-05-09T02:01:30.353Z,24.30
2023-05-09T02:03:57.339Z,25.40
2023-05-09T02:06:24.553Z,26.07
2023-05-09T02:08:51.502Z,26.47
2023-05-09T02:11:18.051Z,26.10
2023-05-09T02:13:44.513Z,26.03
2023-05-09T02:16:12.196Z,24.53
2023-05-09T02:18:38.827Z,26.87
2023-05-09T02:21:06.396Z,26.10
2023-05-09T02:23:32.957Z,25.13
2023-05-09T02:25:59.686Z,26.40
2023-05-09T02:28:28.438Z,25.03
2023-05-09T02:30:57.151Z,28.07
2023-05-09T02:33:23.932Z,25.10
2023-05-09T02:35:51.243Z,28.10
2023-05-09T02:38:19.209Z,28.90
2023-05-09T02:40:47.610Z,28.40
2023-05-09T02:43:15.182Z,25.57
2023-05-09T02:45:42.113Z,27.20
2023-05-09T02:48:09.345Z,29.50
2023-05-09T02:50:38.167Z,29.17
2023-05-09T02:53:04.896Z,27.10
2023-05-09T02:55:31.791Z,26.17
2023-05-09T02:58:09.712Z,28.40
2023-05-09T03:00:39.591Z,27.80
2023-05-09T03:03:06.131Z,25.33
2023-05-09T03:05:32.687Z,30.93
2023-05-09T03:07:59.205Z,26.17
2023-05-09T03:10:25.674Z,30.43
2023-05-09T03:12:52.165Z,27.13
2023-05-09T03:15:18.744Z,28.73
2023-05-09T03:17:45.229Z,27.67
2023-05-09T03:20:11.830Z,28.27
2023-05-09T03:22:38.337Z,28.97
2023-05-09T03:25:06.439Z,28.60
2023-05-09T03:27:32.936Z,26.80
2023-05-09T03:29:59.490Z,29.93
2023-05-09T03:32:26.957Z,29.30
2023-05-09T03:34:54.696Z,27.97
2023-05-09T03:37:21.337Z,28.23
2023-05-09T03:39:47.809Z,28.40
2023-05-09T03:42:14.306Z,26.50
2023-05-09T03:44:40.898Z,27.33
2023-05-09T03:47:07.405Z,30.17
2023-05-09T03:49:33.884Z,29.87
2023-05-09T03:52:00.436Z,29.50
2023-05-09T03:54:26.947Z,37.63
2023-05-09T03:56:53.419Z,28.70
2023-05-09T03:59:20.785Z,27.33
2023-05-09T04:01:47.498Z,31.87
2023-05-09T04:04:14.168Z,31.27
2023-05-09T04:06:40.646Z,27.00
2023-05-09T04:09:07.167Z,34.10
2023-05-09T04:11:33.693Z,30.80
2023-05-09T04:14:00.158Z,33.23
2023-05-09T04:16:26.627Z,28.50
2023-05-09T04:18:53.052Z,25.93
2023-05-09T04:21:19.578Z,33.33
2023-05-09T04:23:46.344Z,26.90
2023-05-09T04:26:13.930Z,31.10
2023-05-09T04:28:40.411Z,29.10
2023-05-09T04:31:07.077Z,25.27
2023-05-09T04:33:33.725Z,31.77
2023-05-09T04:36:00.162Z,30.13
2023-05-09T04:38:26.606Z,30.97
2023-05-09T04:40:53.194Z,39.87
2023-05-09T04:43:20.071Z,51.80
2023-05-09T04:45:46.647Z,46.93
2023-05-09T04:48:13.119Z,46.77
2023-05-09T04:50:41.530Z,51.43
2023-05-09T04:53:08.341Z,67.27
2023-05-09T04:55:35.682Z,64.70
2023-05-09T04:58:02.344Z,41.77
2023-05-09T05:00:28.786Z,33.00
2023-05-09T05:02:55.433Z,32.73
2023-05-09T05:05:25.119Z,28.73
2023-05-09T05:07:53.419Z,33.87
2023-05-09T05:10:19.867Z,30.80
2023-05-09T05:12:46.400Z,31.03
2023-05-09T05:15:13.214Z,32.20
2023-05-09T05:17:39.926Z,31.27
2023-05-09T05:20:08.304Z,34.03
2023-05-09T05:22:35.824Z,38.40
2023-05-09T05:25:03.810Z,39.13
2023-05-09T05:27:30.663Z,41.77
2023-05-09T05:29:57.103Z,44.53
2023-05-09T05:32:23.536Z,41.20
2023-05-09T05:34:49.966Z,55.90
2023-05-09T05:37:16.455Z,33.53
2023-05-09T05:39:42.872Z,31.50
2023-05-09T05:42:09.353Z,32.23
2023-05-09T05:44:35.821Z,28.57
2023-05-09T05:47:02.508Z,32.03
2023-05-09T05:49:29.080Z,30.47
2023-05-09T05:51:55.606Z,38.10
2023-05-09T05:54:22.341Z,33.27
2023-05-09T05:56:49.008Z,28.93
2023-05-09T05:59:16.276Z,30.20
2023-05-09T06:01:42.740Z,35.33
2023-05-09T06:04:09.342Z,40.60
2023-05-09T06:06:35.920Z,44.40
2023-05-09T06:09:02.370Z,42.50
2023-05-09T06:11:28.860Z,31.20
2023-05-09T06:13:55.320Z,31.13
2023-05-09T06:16:22.084Z,29.93
2023-05-09T06:18:48.701Z,34.67
2023-05-09T06:21:15.147Z,28.40
2023-05-09T06:23:51.068Z,25.80
2023-05-09T06:26:28.110Z,29.37
2023-05-09T06:28:54.581Z,27.30
2023-05-09T06:31:21.910Z,27.13
2023-05-09T06:33:48.466Z,30.40
2023-05-09T06:36:14.926Z,28.43
2023-05-09T06:38:41.410Z,26.43
2023-05-09T06:41:07.868Z,26.10
2023-05-09T06:43:34.377Z,25.60
2023-05-09T06:46:00.994Z,24.77
2023-05-09T06:48:27.454Z,26.03
2023-05-09T06:50:53.897Z,26.00
2023-05-09T06:53:20.543Z,28.70
2023-05-09T06:55:47.677Z,27.20
2023-05-09T06:58:14.738Z,27.03
2023-05-09T07:00:41.218Z,23.93
2023-05-09T07:03:07.847Z,23.27
2023-05-09T07:05:34.815Z,24.43
2023-05-09T07:08:01.584Z,26.10
2023-05-09T07:10:28.142Z,23.30
2023-05-09T07:12:54.681Z,25.60
2023-05-09T07:15:32.974Z,35.60
2023-05-09T07:18:07.010Z,28.03
2023-05-09T07:20:33.583Z,25.37
2023-05-09T07:23:00.154Z,25.60
2023-05-09T07:25:26.648Z,24.90
2023-05-09T07:27:53.149Z,36.57
2023-05-09T07:30:19.626Z,27.37
2023-05-09T07:32:46.105Z,25.47
2023-05-09T07:35:12.931Z,22.10
2023-05-09T07:37:40.579Z,21.67
2023-05-09T07:40:08.113Z,22.50
2023-05-09T07:42:34.609Z,23.33
2023-05-09T07:45:01.162Z,19.50
2023-05-09T07:47:27.714Z,20.33
2023-05-09T07:49:54.357Z,20.50
2023-05-09T07:52:21.107Z,17.63
2023-05-09T07:54:47.588Z,20.00
2023-05-09T07:57:14.082Z,17.10
2023-05-09T07:59:41.053Z,16.80
2023-05-09T08:02:07.582Z,20.10
2023-05-09T08:04:37.662Z,17.03
2023-05-09T08:07:04.851Z,16.40
2023-05-09T08:09:31.446Z,19.90
2023-05-09T08:11:58.499Z,15.33
2023-05-09T08:14:25.280Z,22.07
2023-05-09T08:16:51.735Z,15.67
2023-05-09T08:19:18.239Z,16.00
2023-05-09T08:21:44.674Z,15.77
2023-05-09T08:24:11.122Z,19.53
2023-05-09T08:26:37.585Z,14.67
2023-05-09T08:29:04.048Z,18.43
2023-05-09T08:31:30.610Z,20.83
2023-05-09T08:33:57.168Z,19.47
2023-05-09T08:36:23.593Z,16.20
2023-05-09T08:38:50.069Z,18.03
2023-05-09T08:41:16.960Z,15.50
2023-05-09T08:43:44.210Z,14.93
2023-05-09T08:46:11.800Z,15.67
2023-05-09T08:48:39.727Z,20.00
2023-05-09T08:51:07.381Z,14.13
2023-05-09T08:53:34.644Z,15.03
2023-05-09T08:56:01.724Z,16.20
2023-05-09T08:58:28.518Z,11.37
2023-05-09T09:00:58.313Z,12.90
2023-05-09T09:03:27.731Z,11.07
2023-05-09T09:05:55.727Z,12.30
2023-05-09T09:08:23.113Z,10.90
2023-05-09T09:10:49.912Z,11.03
2023-05-09T09:13:18.181Z,13.87
2023-05-09T09:15:46.996Z,16.47
2023-05-09T09:18:22.268Z,14.33
2023-05-09T09:20:56.743Z,10.07
2023-05-09T09:23:26.021Z,11.60
2023-05-09T09:26:04.893Z,13.47
2023-05-09T09:28:31.712Z,11.70
2023-05-09T09:30:58.267Z,11.80
2023-05-09T09:33:26.465Z,10.20
2023-05-09T09:35:55.441Z,10.93
2023-05-09T09:38:23.596Z,10.63
2023-05-09T09:40:53.591Z,10.17
2023-05-09T09:43:20.275Z,12.00
2023-05-09T09:45:51.256Z,11.37
2023-05-09T09:48:17.871Z,13.90
2023-05-09T09:50:47.198Z,11.10
2023-05-09T09:53:13.684Z,12.00
2023-05-09T09:55:50.286Z,9.87
2023-05-09T09:58:18.307Z,10.63
2023-05-09T10:00:46.185Z,12.93
2023-05-09T10:03:17.518Z,10.37
2023-05-09T10:05:44.179Z,12.23
2023-05-09T10:08:10.695Z,9.30
2023-05-09T10:10:37.714Z,11.30
2023-05-09T10:13:07.557Z,11.37
2023-05-09T10:15:49.345Z,10.10
2023-05-09T10:18:24.831Z,10.83
2023-05-09T10:20:51.507Z,11.50
2023-05-09T10:23:18.296Z,9.00
2023-05-09T10:25:49.353Z,12.27
2023-05-09T10:28:22.506Z,9.43
2023-05-09T10:30:55.107Z,10.90
2023-05-09T10:33:27.873Z,11.80
2023-05-09T10:35:56.257Z,12.33
2023-05-09T10:38:24.563Z,16.00
2023-05-09T10:40:53.314Z,9.60
2023-05-09T10:43:21.554Z,12.33
2023-05-09T10:45:48.562Z,10.80
2023-05-09T10:48:15.512Z,10.07
2023-05-09T10:50:43.552Z,9.23
2023-05-09T10:53:21.640Z,11.53
2023-05-09T10:55:57.373Z,10.20
2023-05-09T10:58:23.853Z,9.60
2023-05-09T11:00:52.076Z,10.27
2023-05-09T11:03:21.508Z,10.47
2023-05-09T11:05:50.434Z,12.23
2023-05-09T11:08:23.336Z,8.20
2023-05-09T11:10:49.951Z,13.13
2023-05-09T11:13:23.423Z,9.30
2023-05-09T11:15:59.177Z,12.83
2023-05-09T11:18:25.689Z,10.10
2023-05-09T11:20:52.586Z,9.97
2023-05-09T11:23:20.032Z,9.33
2023-05-09T11:25:47.920Z,15.27
2023-05-09T11:28:29.471Z,9.40
2023-05-09T11:31:13.541Z,9.40
2023-05-09T11:33:41.483Z,11.70
2023-05-09T11:36:29.303Z,9.50
2023-05-09T11:39:03.063Z,10.20
2023-05-09T11:41:29.650Z,9.23
2023-05-09T11:44:00.361Z,12.57
2023-05-09T11:46:27.392Z,10.93
2023-05-09T11:48:54.524Z,10.17
2023-05-09T11:51:21.055Z,10.80
2023-05-09T11:53:50.724Z,15.20
2023-05-09T11:56:17.623Z,10.40
2023-05-09T11:58:44.135Z,11.03
2023-05-09T12:01:12.338Z,10.97
2023-05-09T12:03:44.411Z,11.20
2023-05-09T12:06:16.161Z,10.30
2023-05-09T12:08:44.121Z,9.33
2023-05-09T12:11:11.463Z,9.63
2023-05-09T12:13:45.358Z,9.90
2023-05-09T12:16:11.874Z,17.93
2023-05-09T12:18:38.316Z,11.43
2023-05-09T12:21:07.147Z,8.73
2023-05-09T12:23:36.607Z,9.30
2023-05-09T12:26:03.089Z,13.80
2023-05-09T12:28:30.401Z,11.60
2023-05-09T12:30:57.170Z,10.73
2023-05-09T12:33:23.902Z,13.30
2023-05-09T12:36:05.826Z,11.30
2023-05-09T12:38:32.937Z,8.83
2023-05-09T12:41:12.952Z,12.93
2023-05-09T12:43:49.613Z,12.07
2023-05-09T12:46:20.534Z,14.80
2023-05-09T12:48:48.281Z,9.00
2023-05-09T12:51:22.237Z,9.50
2023-05-09T12:53:48.909Z,10.50
2023-05-09T12:56:20.399Z,11.10
2023-05-09T12:58:54.486Z,11.57
2023-05-09T13:01:27.287Z,9.30
2023-05-09T13:04:02.719Z,9.17
2023-05-09T13:06:29.250Z,10.50
2023-05-09T13:09:00.321Z,10.90
2023-05-09T13:11:26.997Z,9.47
2023-05-09T13:13:56.797Z,9.70
2023-05-09T13:16:23.576Z,9.27
2023-05-09T13:18:50.082Z,11.33
2023-05-09T13:21:16.638Z,9.67
2023-05-09T13:23:44.482Z,10.00
2023-05-09T13:26:10.951Z,9.50
2023-05-09T13:28:37.491Z,10.83
2023-05-09T13:31:04.196Z,10.40
2023-05-09T13:33:30.706Z,8.67
2023-05-09T13:35:57.335Z,8.70
2023-05-09T13:38:23.836Z,10.83
2023-05-09T13:40:50.376Z,11.67
2023-05-09T13:43:16.986Z,11.70
2023-05-09T13:45:43.393Z,18.47
2023-05-09T13:48:09.945Z,13.97
2023-05-09T13:50:36.387Z,15.20
2023-05-09T13:53:03.343Z,16.43
2023-05-09T13:55:30.737Z,15.77
2023-05-09T13:57:57.232Z,14.80
2023-05-09T14:00:26.458Z,15.43
2023-05-09T14:02:53.011Z,19.33
2023-05-09T14:05:19.814Z,15.83
2023-05-09T14:07:46.374Z,15.70
2023-05-09T14:10:13.012Z,15.00
2023-05-09T14:12:40.692Z,14.87
2023-05-09T14:15:08.339Z,14.17
2023-05-09T14:17:34.933Z,16.10
2023-05-09T14:20:01.625Z,14.30
2023-05-09T14:22:28.257Z,13.07
2023-05-09T14:24:56.552Z,16.17
2023-05-09T14:27:23.227Z,18.33
2023-05-09T14:29:49.693Z,18.20
2023-05-09T14:32:16.866Z,13.00
2023-05-09T14:34:43.458Z,15.23
2023-05-09T14:37:13.710Z,15.30
2023-05-09T14:39:45.337Z,15.30
2023-05-09T14:42:14.134Z,14.00
2023-05-09T14:44:41.729Z,13.97
2023-05-09T14:47:11.432Z,15.83
2023-05-09T14:49:40.001Z,14.87
2023-05-09T14:52:06.664Z,14.03
2023-05-09T14:54:33.170Z,13.73
2023-05-09T14:57:01.916Z,15.40
2023-05-09T14:59:28.472Z,14.80
2023-05-09T15:01:54.950Z,19.37
2023-05-09T15:04:21.480Z,15.53
2023-05-09T15:06:51.091Z,17.77
2023-05-09T15:09:18.951Z,22.67
2023-05-09T15:11:51.415Z,19.20
2023-05-09T15:14:18.763Z,20.07
2023-05-09T15:16:45.629Z,17.77
2023-05-09T15:19:12.169Z,13.97
2023-05-09T15:21:38.766Z,18.37
2023-05-09T15:24:05.568Z,13.87
2023-05-09T15:26:32.377Z,15.30
2023-05-09T15:28:58.976Z,15.67
2023-05-09T15:31:25.812Z,14.10
2023-05-09T15:33:52.485Z,15.10
2023-05-09T15:36:18.961Z,16.97
2023-05-09T15:38:49.539Z,16.83
2023-05-09T15:41:16.749Z,18.33
2023-05-09T15:43:43.279Z,19.80
2023-05-09T15:46:09.849Z,16.23
2023-05-09T15:48:36.439Z,20.00
2023-05-09T15:51:03.934Z,21.47
2023-05-09T15:53:30.592Z,18.47
2023-05-09T15:55:57.191Z,19.37
2023-05-09T15:58:23.792Z,20.70
2023-05-09T16:00:50.874Z,19.37
2023-05-09T16:03:18.351Z,18.67
2023-05-09T16:05:45.220Z,17.83
2023-05-09T16:08:12.153Z,19.10
2023-05-09T16:10:38.752Z,20.30
2023-05-09T16:13:05.341Z,17.43
2023-05-09T16:15:32.983Z,18.73
2023-05-09T16:17:59.496Z,14.90
2023-05-09T16:20:26.050Z,15.60
2023-05-09T16:22:52.612Z,14.87
2023-05-09T16:25:19.265Z,17.20
2023-05-09T16:27:45.804Z,16.33
2023-05-09T16:30:13.106Z,18.07
2023-05-09T16:32:39.778Z,16.57
2023-05-09T16:35:07.644Z,12.27
2023-05-09T16:37:35.634Z,13.27
2023-05-09T16:40:02.964Z,13.60
2023-05-09T16:42:29.459Z,23.30
2023-05-09T16:44:56.102Z,14.67
2023-05-09T16:47:22.620Z,11.77
2023-05-09T16:49:49.137Z,13.00
2023-05-09T16:52:15.654Z,12.07
2023-05-09T16:54:42.211Z,11.90
2023-05-09T16:57:08.754Z,12.40
2023-05-09T16:59:35.384Z,12.47
2023-05-09T17:02:02.193Z,13.50
2023-05-09T17:04:29.341Z,14.60
2023-05-09T17:06:55.969Z,13.37
2023-05-09T17:09:22.536Z,16.60
2023-05-09T17:11:48.984Z,13.40
2023-05-09T17:14:15.506Z,10.93
2023-05-09T17:16:41.969Z,13.93
2023-05-09T17:19:08.527Z,17.20
2023-05-09T17:21:35.412Z,10.80
2023-05-09T17:24:02.183Z,12.20
2023-05-09T17:26:29.573Z,13.27
2023-05-09T17:28:56.139Z,10.00
2023-05-09T17:31:22.733Z,11.50
2023-05-09T17:33:49.350Z,8.53
2023-05-09T17:36:15.840Z,24.03
2023-05-09T17:38:42.380Z,8.43
2023-05-09T17:41:08.890Z,8.90
2023-05-09T17:43:35.352Z,8.90
2023-05-09T17:46:01.967Z,11.97
2023-05-09T17:48:29.195Z,10.77
2023-05-09T17:50:56.167Z,10.07
2023-05-09T17:53:22.762Z,10.77
2023-05-09T17:55:50.784Z,8.83
2023-05-09T17:58:17.235Z,10.83
2023-05-09T18:00:44.632Z,9.87
2023-05-09T18:03:11.210Z,11.53
2023-05-09T18:05:38.045Z,10.27
2023-05-09T18:08:05.607Z,11.43
2023-05-09T18:10:32.221Z,8.80
2023-05-09T18:12:58.766Z,11.00
2023-05-09T18:15:26.346Z,8.97
2023-05-09T18:17:54.707Z,7.50
2023-05-09T18:20:21.666Z,7.50
2023-05-09T18:22:48.188Z,8.07
2023-05-09T18:25:14.703Z,7.50
2023-05-09T18:27:41.158Z,8.27
2023-05-09T18:30:08.309Z,8.13
2023-05-09T18:32:34.881Z,8.90
2023-05-09T18:35:01.361Z,8.20
2023-05-09T18:37:27.887Z,8.20
2023-05-09T18:39:54.379Z,7.20
2023-05-09T18:42:20.820Z,10.60
2023-05-09T18:44:47.318Z,7.70
2023-05-09T18:47:13.979Z,7.40
2023-05-09T18:49:41.268Z,10.13
2023-05-09T18:52:08.725Z,10.73
2023-05-09T18:54:36.482Z,7.20
2023-05-09T18:57:03.344Z,9.57
2023-05-09T18:59:29.750Z,8.37
2023-05-09T19:01:56.203Z,12.07
2023-05-09T19:04:22.840Z,7.57
2023-05-09T19:06:49.562Z,8.17
2023-05-09T19:09:16.626Z,7.90
2023-05-09T19:11:43.295Z,9.33
2023-05-09T19:14:09.723Z,7.30
2023-05-09T19:16:36.232Z,10.80
2023-05-09T19:19:02.686Z,9.67
2023-05-09T19:21:29.755Z,10.10
2023-05-09T19:23:56.274Z,9.07
2023-05-09T19:26:22.813Z,16.00
2023-05-09T19:28:49.225Z,7.87
2023-05-09T19:31:16.244Z,8.57
2023-05-09T19:33:47.464Z,8.80
2023-05-09T19:36:14.130Z,8.83
2023-05-09T19:38:40.615Z,10.70
2023-05-09T19:41:07.358Z,8.70
2023-05-09T19:43:33.825Z,9.93
2023-05-09T19:46:00.381Z,9.93
2023-05-09T19:48:26.883Z,8.43
2023-05-09T19:50:57.624Z,10.73
2023-05-09T19:53:24.638Z,10.37
2023-05-09T19:55:51.740Z,9.40
2023-05-09T19:58:18.274Z,7.23
2023-05-09T20:00:45.135Z,13.20
2023-05-09T20:03:11.710Z,7.27
2023-05-09T20:05:38.357Z,7.83
2023-05-09T20:08:04.930Z,7.33
2023-05-09T20:10:32.923Z,7.57
2023-05-09T20:13:00.928Z,7.60
2023-05-09T20:15:27.814Z,8.67
2023-05-09T20:17:54.449Z,7.70
2023-05-09T20:20:21.262Z,6.87
2023-05-09T20:22:47.755Z,8.97
2023-05-09T20:25:14.818Z,9.40
2023-05-09T20:27:41.468Z,10.27
2023-05-09T20:30:08.398Z,7.63
2023-05-09T20:32:35.216Z,7.93
2023-05-09T20:35:02.103Z,8.93
2023-05-09T20:37:28.542Z,8.20
2023-05-09T20:39:54.967Z,9.33
2023-05-09T20:42:23.191Z,8.03
2023-05-09T20:44:51.517Z,8.17
2023-05-09T20:47:18.093Z,12.20
2023-05-09T20:49:44.568Z,10.70
2023-05-09T20:52:11.042Z,8.37
2023-05-09T20:54:37.719Z,8.60
2023-05-09T20:57:04.167Z,9.37
2023-05-09T20:59:30.706Z,10.13
2023-05-09T21:01:57.427Z,9.03
2023-05-09T21:04:24.136Z,11.00
2023-05-09T21:06:50.637Z,8.50
2023-05-09T21:09:17.219Z,10.90
2023-05-09T21:11:43.713Z,10.13
2023-05-09T21:14:10.270Z,8.90
2023-05-09T21:16:36.794Z,8.80
2023-05-09T21:19:05.168Z,9.10
2023-05-09T21:21:33.180Z,9.13
2023-05-09T21:24:03.231Z,8.00
2023-05-09T21:26:30.456Z,10.30
2023-05-09T21:28:56.982Z,9.20
2023-05-09T21:31:23.587Z,8.53
2023-05-09T21:33:50.203Z,10.27
2023-05-09T21:36:16.625Z,8.50
2023-05-09T21:38:43.067Z,8.73
2023-05-09T21:41:10.160Z,8.97
2023-05-09T21:43:37.460Z,11.20
2023-05-09T21:46:05.553Z,9.23
2023-05-09T21:48:32.228Z,9.57
2023-05-09T21:51:07.513Z,9.40
2023-05-09T21:53:33.999Z,10.73
2023-05-09T21:56:00.407Z,10.03
2023-05-09T21:58:26.906Z,9.50
2023-05-09T22:00:53.372Z,10.27
2023-05-09T22:03:19.963Z,9.40
2023-05-09T22:05:46.500Z,12.90
2023-05-09T22:08:13.464Z,14.50
2023-05-09T22:10:39.926Z,10.40
2023-05-09T22:13:06.480Z,10.60
2023-05-09T22:15:32.973Z,12.63
2023-05-09T22:17:59.543Z,11.57
2023-05-09T22:20:26.228Z,9.63
2023-05-09T22:22:52.719Z,9.97
2023-05-09T22:25:19.455Z,13.10
2023-05-09T22:27:45.960Z,11.03
2023-05-09T22:30:12.695Z,10.67
2023-05-09T22:32:39.665Z,10.87
2023-05-09T22:35:06.831Z,15.17
2023-05-09T22:37:33.350Z,10.60
2023-05-09T22:40:01.417Z,11.03
2023-05-09T22:42:29.376Z,12.23
2023-05-09T22:44:55.975Z,12.97
2023-05-09T22:47:22.443Z,11.90
2023-05-09T22:49:49.479Z,15.97
2023-05-09T22:52:15.960Z,12.10
2023-05-09T22:54:42.508Z,11.70
2023-05-09T22:57:09.297Z,13.00
2023-05-09T22:59:36.947Z,12.83
2023-05-09T23:02:04.167Z,11.97
2023-05-09T23:04:30.839Z,11.70
2023-05-09T23:06:57.241Z,12.77
2023-05-09T23:09:23.695Z,12.03
2023-05-09T23:11:50.238Z,13.63
2023-05-09T23:14:16.668Z,17.00
2023-05-09T23:16:43.162Z,12.53
2023-05-09T23:19:10.022Z,12.80
2023-05-09T23:21:36.652Z,13.30
2023-05-09T23:24:03.129Z,13.60
2023-05-09T23:26:29.564Z,14.30
2023-05-09T23:28:56.008Z,14.43
2023-05-09T23:31:22.480Z,13.00
2023-05-09T23:33:49.056Z,14.30
2023-05-09T23:36:15.679Z,15.00
2023-05-09T23:38:42.100Z,13.50
2023-05-09T23:41:08.702Z,14.50
2023-05-09T23:43:35.200Z,14.20
2023-05-09T23:46:01.931Z,15.00
2023-05-09T23:48:31.426Z,17.30
2023-05-09T23:50:57.891Z,14.63
2023-05-09T23:53:24.439Z,15.37
2023-05-09T23:55:51.208Z,15.50
2023-05-09T23:58:17.655Z,15.00
